Darstellungsparameter: Aktuell verwendete Einstellungen:
Skalierung der Graphiken ... ?
xyx+y,   Skalierungsfaktor:      Skalierung: Modus: x, Faktor: 1
Darstellungszeitraum ... ?
Vom - - bis: - -   Zeitraum: 28.03.2011 - 28.03.2011
Min/Max/Avg-Anzeige ... ?
Zeige MMA aktuell
Zeige MMA Monat
Zeige MMA alles
Zeige --A aktuell
Zeige --A Monat
Zeige --A alles
Keine MMA-Anzeige
MMA:
Average (ber die Originaldaten)
MMA-Basis: 28.03.2011 - 28.03.2011
Quicknavigation für Darstellung... ?
Tage:      1T, 2T, 3T, 5T -1T -2T -3T -5T +1T +2T +3T +5T
Wochen: 1W, 2W, 3W -1W -2W -3W +1W +2W +3W
Monate: 1M, 3M, 6M -1M -3M -6M +1M +3M +6M
Jahre:    1J, 3J, 5J, 10J -1J -3J -5J -10J +1J +3J +5J +10J
Nutze für die Darstellung ... ?
Originaldaten oder Mittelwerte auf ...
Stundenbasis Tagesbasis Wochenbasis
Monatsbasis Jahresbasis      Datenbasis: Original-Daten
Darstellen als:
Statistik (Auto) Statistik J:M      Darstellung:
Zur Graphik,    zurück zur Übersicht aller Sensoren.
 
Tabellarische Datenbersicht: ?
 
Sensor: Nr:Datum:Temp:Abs-Feuchte:Windchill:Wind:
Aussen-T/F 1 28-03-2011 00:03:04 6 C 5.15 g/m*3 6 C 0 km/h
2 28-03-2011 00:15:04 5.6 C 5.02 g/m*3 5.6 C 0 km/h
3 28-03-2011 00:27:04 5.4 C 5.16 g/m*3 5.4 C 0 km/h
4 28-03-2011 00:39:04 5.4 C 5.23 g/m*3 5.4 C 0 km/h
5 28-03-2011 00:51:05 4.9 C 5.06 g/m*3 4.9 C 0 km/h
6 28-03-2011 01:03:05 4.3 C 4.86 g/m*3 4.3 C 0 km/h
7 28-03-2011 01:15:05 4 C 4.9 g/m*3 4 C 0 km/h
8 28-03-2011 01:27:05 4 C 5.02 g/m*3 4 C 0 km/h
9 28-03-2011 01:39:05 4.2 C 5.22 g/m*3 4.2 C 0 km/h
10 28-03-2011 01:51:05 3.5 C 4.98 g/m*3 3.5 C 0 km/h
11 28-03-2011 02:03:05 3.2 C 4.94 g/m*3 3.2 C 0 km/h
12 28-03-2011 02:15:05 2.8 C 4.87 g/m*3 2.8 C 0 km/h
13 28-03-2011 02:27:05 2.9 C 4.96 g/m*3 2.9 C 0 km/h
14 28-03-2011 02:39:05 2.6 C 4.86 g/m*3 2.6 C 0 km/h
15 28-03-2011 02:51:05 2.5 C 4.83 g/m*3 2.5 C 0 km/h
16 28-03-2011 03:03:05 2.3 C 4.82 g/m*3 2.3 C 0 km/h
17 28-03-2011 03:15:05 2.3 C 4.82 g/m*3 2.3 C 0 km/h
18 28-03-2011 03:27:05 2.1 C 4.81 g/m*3 2.1 C 0 km/h
19 28-03-2011 03:39:05 2.1 C 4.81 g/m*3 2.1 C 0 km/h
20 28-03-2011 03:51:05 1.9 C 4.8 g/m*3 1.9 C 0 km/h
21 28-03-2011 04:03:05 2.8 C 5.16 g/m*3 2.8 C 0 km/h
22 28-03-2011 04:15:05 3 C 5.23 g/m*3 3 C 0 km/h
23 28-03-2011 04:27:05 2.8 C 5.16 g/m*3 2.8 C 0 km/h
24 28-03-2011 04:39:05 2.5 C 5 g/m*3 2.5 C 0 km/h
25 28-03-2011 04:51:05 2.3 C 4.93 g/m*3 2.3 C 0 km/h
Sensor: Nr:Datum:Temp:Abs-Feuchte:Windchill:Wind:
Aussen-T/F 26 28-03-2011 05:03:06 2.2 C 4.9 g/m*3 2.2 C 0 km/h
27 28-03-2011 05:15:06 2.2 C 4.96 g/m*3 2.2 C 0 km/h
28 28-03-2011 05:27:06 1.9 C 4.86 g/m*3 1.9 C 0 km/h
29 28-03-2011 05:39:06 1.6 C 4.81 g/m*3 1.6 C 0 km/h
30 28-03-2011 05:51:06 1.3 C 4.72 g/m*3 1.3 C 0 km/h
31 28-03-2011 06:03:06 1.3 C 4.72 g/m*3 1.3 C 0 km/h
32 28-03-2011 06:15:06 1.1 C 4.65 g/m*3 1.1 C 0 km/h
33 28-03-2011 06:27:06 1.3 C 4.72 g/m*3 1.3 C 0 km/h
34 28-03-2011 06:39:06 1.1 C 4.65 g/m*3 1.1 C 0 km/h
35 28-03-2011 06:51:06 0.9 C 4.64 g/m*3 0.9 C 0 km/h
36 28-03-2011 07:03:03 0.8 C 4.61 g/m*3 0.8 C 0 km/h
37 28-03-2011 07:15:03 0.9 C 4.64 g/m*3 0.9 C 0 km/h
38 28-03-2011 07:27:03 0.7 C 4.63 g/m*3 0.7 C 0 km/h
39 28-03-2011 07:39:04 0.4 C 4.53 g/m*3 0.4 C 0 km/h
40 28-03-2011 07:51:02 0.3 C 4.5 g/m*3 0.3 C 0 km/h
41 28-03-2011 08:03:02 0.5 C 4.56 g/m*3 0.5 C 0 km/h
42 28-03-2011 08:15:02 0.8 C 4.66 g/m*3 0.8 C 0 km/h
43 28-03-2011 08:27:02 1.3 C 4.82 g/m*3 1.3 C 0 km/h
44 28-03-2011 08:39:02 1.2 C 4.79 g/m*3 1.2 C 0 km/h
45 28-03-2011 08:51:02 1.9 C 5.02 g/m*3 1.9 C 0 km/h
46 28-03-2011 09:03:02 1.9 C 5.02 g/m*3 1.9 C 0 km/h
47 28-03-2011 09:15:02 2.2 C 5.07 g/m*3 2.2 C 0 km/h
48 28-03-2011 09:27:02 2.4 C 5.14 g/m*3 2.4 C 0 km/h
49 28-03-2011 09:39:02 2.6 C 5.21 g/m*3 2.6 C 0 km/h
50 28-03-2011 09:51:02 3 C 5.29 g/m*3 3 C 0 km/h
Sensor: Nr:Datum:Temp:Abs-Feuchte:Windchill:Wind:
Aussen-T/F 51 28-03-2011 10:03:02 3.2 C 5.36 g/m*3 3.2 C 0 km/h
52 28-03-2011 10:15:02 4 C 5.59 g/m*3 4 C 0 km/h
53 28-03-2011 10:27:02 4.2 C 5.61 g/m*3 4.2 C 0 km/h
54 28-03-2011 10:39:02 5.3 C 5.54 g/m*3 5.3 C 0 km/h
55 28-03-2011 10:51:02 6.6 C 5.21 g/m*3 6.6 C 0 km/h
56 28-03-2011 11:03:02 7.3 C 4.82 g/m*3 7.3 C 0 km/h
57 28-03-2011 11:15:02 7.9 C 4.52 g/m*3 7.9 C 0 km/h
58 28-03-2011 11:27:03 8.5 C 4.44 g/m*3 8.5 C 0 km/h
59 28-03-2011 11:39:01 9.3 C 3.86 g/m*3 9.3 C 0 km/h
60 28-03-2011 11:51:02 10 C 3.95 g/m*3 10 C 0 km/h
61 28-03-2011 12:03:01 10.4 C 3.76 g/m*3 10.4 C 0 km/h
62 28-03-2011 12:15:01 11 C 3.4 g/m*3 11 C 0 km/h
63 28-03-2011 12:27:01 11 C 3.3 g/m*3 11 C 0 km/h
64 28-03-2011 12:39:02 11.8 C 3.47 g/m*3 11.8 C 0 km/h
65 28-03-2011 12:51:02 12.2 C 3.24 g/m*3 12.2 C 0 km/h
66 28-03-2011 13:03:02 12.4 C 3.17 g/m*3 12.4 C 0 km/h
67 28-03-2011 13:15:02 13.2 C 3.33 g/m*3 13.2 C 0 km/h
68 28-03-2011 13:27:02 13.7 C 2.96 g/m*3 13.7 C 0 km/h
69 28-03-2011 13:39:02 14 C 3.02 g/m*3 14 C 0 km/h
70 28-03-2011 13:51:01 16.1 C 2.74 g/m*3 16.1 C 0 km/h
71 28-03-2011 14:03:02 14.6 C 2.5 g/m*3 14.6 C 0 km/h
72 28-03-2011 14:15:01 14.9 C 2.55 g/m*3 14.9 C 0 km/h
73 28-03-2011 14:27:01 14.3 C 2.46 g/m*3 14.3 C 0 km/h
74 28-03-2011 14:39:01 14.1 C 2.43 g/m*3 14.1 C 0 km/h
75 28-03-2011 14:51:01 15 C 2.56 g/m*3 15 C 0 km/h
Sensor: Nr:Datum:Temp:Abs-Feuchte:Windchill:Wind:
Aussen-T/F 76 28-03-2011 15:03:02 16 C 2.72 g/m*3 16 C 0 km/h
77 28-03-2011 15:15:01 16.2 C 2.76 g/m*3 16.2 C 0 km/h
78 28-03-2011 15:27:01 16.6 C 2.83 g/m*3 16.6 C 0 km/h
79 28-03-2011 15:39:01 20.1 C 3.48 g/m*3 20.1 C 0 km/h
80 28-03-2011 15:51:01 17.2 C 2.93 g/m*3 17.2 C 0 km/h
81 28-03-2011 16:03:01 18.9 C 3.24 g/m*3 18.9 C 0 km/h
82 28-03-2011 16:15:02 19.4 C 3.34 g/m*3 19.4 C 0 km/h
83 28-03-2011 16:27:02 19.7 C 3.4 g/m*3 19.7 C 0 km/h
84 28-03-2011 16:39:01 18.3 C 3.13 g/m*3 18.3 C 0 km/h
85 28-03-2011 16:51:02 18.4 C 3.15 g/m*3 18.4 C 0 km/h
86 28-03-2011 17:03:01 16.9 C 2.88 g/m*3 16.9 C 0 km/h
87 28-03-2011 17:15:01 18.4 C 3.15 g/m*3 18.4 C 0 km/h
88 28-03-2011 17:27:01 19.2 C 3.3 g/m*3 19.2 C 0 km/h
89 28-03-2011 17:39:01 18.5 C 3.16 g/m*3 18.5 C 0 km/h
90 28-03-2011 17:51:02 16.7 C 2.84 g/m*3 16.7 C 0 km/h
91 28-03-2011 18:03:02 16.7 C 2.84 g/m*3 16.7 C 0 km/h
92 28-03-2011 18:15:02 17.1 C 2.91 g/m*3 17.1 C 0 km/h
93 28-03-2011 18:27:02 16.4 C 2.79 g/m*3 16.4 C 0 km/h
94 28-03-2011 18:39:02 15.5 C 2.64 g/m*3 15.5 C 0 km/h
95 28-03-2011 18:51:02 14.9 C 2.55 g/m*3 14.9 C 0 km/h
96 28-03-2011 19:03:02 14.6 C 2.5 g/m*3 14.6 C 0 km/h
97 28-03-2011 19:15:01 13.5 C 2.46 g/m*3 13.5 C 0 km/h
98 28-03-2011 19:27:01 12.8 C 2.8 g/m*3 12.8 C 0 km/h
99 28-03-2011 19:39:02 11.2 C 3.04 g/m*3 11.2 C 0 km/h
100 28-03-2011 19:51:02 9.8 C 3.34 g/m*3 9.8 C 0 km/h
Sensor: Nr:Datum:Temp:Abs-Feuchte:Windchill:Wind:
Aussen-T/F 101 28-03-2011 20:03:02 9.6 C 3.3 g/m*3 9.6 C 0 km/h
102 28-03-2011 20:15:02 9 C 3.26 g/m*3 9 C 0 km/h
103 28-03-2011 20:27:02 9.6 C 3.21 g/m*3 9.6 C 0 km/h
104 28-03-2011 20:39:02 9.5 C 3.09 g/m*3 9.5 C 0 km/h
105 28-03-2011 20:51:02 9.2 C 3.21 g/m*3 9.2 C 0 km/h
106 28-03-2011 21:03:02 7.8 C 3.51 g/m*3 7.8 C 0 km/h
107 28-03-2011 21:15:02 7.1 C 3.67 g/m*3 7.1 C 0 km/h
108 28-03-2011 21:27:02 6.9 C 3.77 g/m*3 6.9 C 0 km/h
109 28-03-2011 21:39:02 6.5 C 3.67 g/m*3 6.5 C 0 km/h
110 28-03-2011 21:51:02 6.2 C 3.75 g/m*3 6.2 C 0 km/h
111 28-03-2011 22:03:02 5.6 C 3.68 g/m*3 5.6 C 0 km/h
112 28-03-2011 22:15:02 5.8 C 3.72 g/m*3 5.8 C 0 km/h
113 28-03-2011 22:27:02 6.2 C 3.75 g/m*3 6.2 C 0 km/h
114 28-03-2011 22:39:02 5.6 C 3.82 g/m*3 5.6 C 0 km/h
115 28-03-2011 22:51:02 5.3 C 4.02 g/m*3 5.3 C 0 km/h
116 28-03-2011 23:03:01 4.7 C 3.93 g/m*3 4.7 C 0 km/h
117 28-03-2011 23:15:02 4.4 C 4.05 g/m*3 4.4 C 0 km/h
118 28-03-2011 23:27:02 3.3 C 3.88 g/m*3 3.3 C 0 km/h
119 28-03-2011 23:39:02 2.9 C 4.02 g/m*3 2.9 C 0 km/h
120 28-03-2011 23:51:02 2.3 C 3.91 g/m*3 2.3 C 0 km/h

Legende:
   Min
   Max


Maximal/Minimal-Werte vom 28.03.2011 - 28.03.2011

Sensor Min Max Avg
Temp
(Aussen-T/F)
0.3 °C
28-03-2011  07:51:02
20.1 °C
28-03-2011  15:39:01
7.72 °C
Abs-Feuchte
(Aussen-T/F)
2.43 g/m*3
28-03-2011  14:39:01
5.61 g/m*3
28-03-2011  10:27:02
4.02 g/m*3
Windchill
(Aussen-T/F)
0.3 C
28-03-2011  07:51:02
20.1 C
28-03-2011  15:39:01
7.66 C

Die Daten stammen von einer Davis Vantage Pro 2 Wetter-Station und werden unter Linux mit der Software wview2wettercgi und aufbereitet. Alle Angaben erfolgen ohne Gewähr für ihre Vollständigkeit oder Richtigkeit.
Kontakt: Rainer Krienke krienke@uni-koblenz.de . Meine Webseiten an der Uni Koblenz oder privat.
Version: $Revision: 0.78 $